createdAt,value
2022-11-12T00:01:14.902Z,5.50
2022-11-12T00:06:38.228Z,5.60
2022-11-12T00:11:59.846Z,5.50
2022-11-12T00:17:21.429Z,5.50
2022-11-12T00:22:44.432Z,5.50
2022-11-12T00:28:09.810Z,5.60
2022-11-12T00:33:31.528Z,5.30
2022-11-12T00:38:55.174Z,5.30
2022-11-12T00:44:16.982Z,5.10
2022-11-12T00:49:38.692Z,5.20
2022-11-12T00:55:02.556Z,5.30
2022-11-12T01:00:24.766Z,5.30
2022-11-12T01:05:46.692Z,5.30
2022-11-12T01:11:13.385Z,5.20
2022-11-12T01:16:38.389Z,5.10
2022-11-12T01:22:00.065Z,5.00
2022-11-12T01:27:24.542Z,5.10
2022-11-12T01:32:46.657Z,5.10
2022-11-12T01:38:08.487Z,5.10
2022-11-12T01:43:31.666Z,5.10
2022-11-12T01:48:57.242Z,5.10
2022-11-12T01:54:21.422Z,5.20
2022-11-12T01:59:49.165Z,8.80
2022-11-12T02:05:12.397Z,5.30
2022-11-12T02:10:35.582Z,5.30
2022-11-12T02:15:59.952Z,5.50
2022-11-12T02:21:23.699Z,5.40
2022-11-12T02:26:48.917Z,5.60
2022-11-12T02:32:10.867Z,5.50
2022-11-12T02:37:34.216Z,5.30
2022-11-12T02:42:55.794Z,6.40
2022-11-12T02:48:19.280Z,5.50
2022-11-12T02:53:42.983Z,5.40
2022-11-12T02:59:04.574Z,5.40
2022-11-12T03:04:26.512Z,5.40
2022-11-12T03:09:49.690Z,5.20
2022-11-12T03:15:11.769Z,5.20
2022-11-12T03:20:34.812Z,5.20
2022-11-12T03:25:57.974Z,5.00
2022-11-12T03:31:19.687Z,5.10
2022-11-12T03:36:41.451Z,5.10
2022-11-12T03:42:05.020Z,5.30
2022-11-12T03:47:27.063Z,5.20
2022-11-12T03:52:49.969Z,5.10
2022-11-12T03:58:13.272Z,5.20
2022-11-12T04:03:34.931Z,5.20
2022-11-12T04:08:56.654Z,5.20
2022-11-12T04:21:34.212Z,5.10
2022-11-12T04:26:56.237Z,5.10
2022-11-12T04:32:18.248Z,5.10
2022-11-12T04:37:47.644Z,4.90
2022-11-12T04:43:30.529Z,4.80
2022-11-12T04:48:52.726Z,4.80
2022-11-12T04:54:15.848Z,5.00
2022-11-12T04:59:37.492Z,5.10
2022-11-12T05:04:59.368Z,5.20
2022-11-12T05:10:22.280Z,5.10
2022-11-12T05:15:45.061Z,5.00
2022-11-12T05:21:21.272Z,4.90
2022-11-12T05:26:44.268Z,4.90
2022-11-12T05:32:06.761Z,5.00
2022-11-12T05:37:28.624Z,5.10
2022-11-12T05:42:51.824Z,5.10
2022-11-12T05:48:13.836Z,4.90
2022-11-12T05:53:35.466Z,4.90
2022-11-12T05:58:58.713Z,4.90
2022-11-12T06:04:21.024Z,4.80
2022-11-12T06:09:42.829Z,4.70
2022-11-12T06:15:06.896Z,4.80
2022-11-12T06:20:28.555Z,4.80
2022-11-12T06:25:50.437Z,4.80
2022-11-12T06:31:13.817Z,4.80
2022-11-12T06:36:35.510Z,4.80
2022-11-12T06:41:57.509Z,4.80
2022-11-12T06:47:20.690Z,4.90
2022-11-12T06:52:42.184Z,4.90
2022-11-12T06:58:03.922Z,4.90
2022-11-12T07:03:26.922Z,4.80
2022-11-12T07:08:49.205Z,5.00
2022-11-12T07:14:11.192Z,5.10
2022-11-12T07:19:34.212Z,5.00
2022-11-12T07:24:55.907Z,5.10
2022-11-12T07:30:17.990Z,5.00
2022-11-12T07:35:40.960Z,4.90
2022-11-12T07:41:02.973Z,4.90
2022-11-12T07:46:27.038Z,5.00
2022-11-12T07:51:49.967Z,5.30
2022-11-12T07:57:11.579Z,5.40
2022-11-12T08:02:33.245Z,5.30
2022-11-12T08:07:58.090Z,5.70
2022-11-12T08:13:20.172Z,5.80
2022-11-12T08:18:41.707Z,5.70
2022-11-12T08:24:04.972Z,6.40
2022-11-12T08:29:26.793Z,5.70
2022-11-12T08:34:48.368Z,5.80
2022-11-12T08:40:13.540Z,6.20
2022-11-12T08:45:36.859Z,6.20
2022-11-12T08:50:59.007Z,6.20
2022-11-12T08:56:22.245Z,6.70
2022-11-12T09:01:44.322Z,6.10
2022-11-12T09:07:09.320Z,5.90
2022-11-12T09:12:32.953Z,5.80
2022-11-12T09:17:56.784Z,6.20
2022-11-12T09:23:18.888Z,6.70
2022-11-12T09:28:43.049Z,6.50
2022-11-12T09:34:05.569Z,6.80
2022-11-12T09:39:27.240Z,6.70
2022-11-12T09:44:58.844Z,7.00
2022-11-12T09:50:25.366Z,7.40
2022-11-12T09:55:50.154Z,7.50
2022-11-12T10:01:18.168Z,7.30
2022-11-12T10:06:47.572Z,6.70
2022-11-12T10:12:33.946Z,6.80
2022-11-12T10:18:06.830Z,7.20
2022-11-12T10:23:35.628Z,7.30
2022-11-12T10:29:04.247Z,7.60
2022-11-12T10:34:27.145Z,7.80
2022-11-12T10:39:49.184Z,7.90
2022-11-12T10:45:22.078Z,8.00
2022-11-12T10:50:45.152Z,7.80
2022-11-12T10:56:24.189Z,7.80
2022-11-12T11:01:47.339Z,7.80
2022-11-12T11:07:22.542Z,7.90
2022-11-12T11:12:44.718Z,7.90
2022-11-12T11:18:06.614Z,7.90
2022-11-12T11:23:35.256Z,8.20
2022-11-12T11:29:16.976Z,8.20
2022-11-12T11:34:49.782Z,8.20
2022-11-12T11:40:21.967Z,7.20
2022-11-12T11:45:59.357Z,7.80
2022-11-12T11:51:39.523Z,8.30
2022-11-12T11:57:11.644Z,8.30
2022-11-12T12:02:45.873Z,8.00
2022-11-12T12:08:11.060Z,8.00
2022-11-12T12:13:47.516Z,8.00
2022-11-12T12:19:25.538Z,7.90
2022-11-12T12:24:51.262Z,7.80
2022-11-12T12:30:22.170Z,7.70
2022-11-12T12:35:54.044Z,7.70
2022-11-12T12:41:27.747Z,7.80
2022-11-12T12:46:57.436Z,7.80
2022-11-12T12:52:19.459Z,7.50
2022-11-12T12:57:41.868Z,7.90
2022-11-12T13:03:05.767Z,7.80
2022-11-12T13:08:28.272Z,7.60
2022-11-12T13:13:50.586Z,7.60
2022-11-12T13:19:28.538Z,7.40
2022-11-12T13:25:04.410Z,7.50
2022-11-12T13:31:00.390Z,7.50
2022-11-12T13:36:29.562Z,7.40
2022-11-12T13:42:24.836Z,7.60
2022-11-12T13:47:47.504Z,6.60
2022-11-12T13:53:16.306Z,7.00
2022-11-12T13:58:39.841Z,7.00
2022-11-12T14:04:02.301Z,6.80
2022-11-12T14:09:35.488Z,6.90
2022-11-12T14:15:16.500Z,6.90
2022-11-12T14:20:40.063Z,6.80
2022-11-12T14:26:03.355Z,7.00
2022-11-12T14:31:26.587Z,7.00
2022-11-12T14:36:49.085Z,6.90
2022-11-12T14:42:16.826Z,6.80
2022-11-12T14:47:38.401Z,6.90
2022-11-12T14:53:04.087Z,6.60
2022-11-12T14:58:28.586Z,6.70
2022-11-12T15:03:50.222Z,6.90
2022-11-12T15:09:11.960Z,6.90
2022-11-12T15:14:35.583Z,6.80
2022-11-12T15:20:03.691Z,6.80
2022-11-12T15:25:27.472Z,6.90
2022-11-12T15:31:06.871Z,6.70
2022-11-12T15:36:28.578Z,6.50
2022-11-12T15:41:57.302Z,6.40
2022-11-12T15:47:23.550Z,6.50
2022-11-12T15:52:45.522Z,6.30
2022-11-12T15:58:08.746Z,6.30
2022-11-12T16:03:32.330Z,6.20
2022-11-12T16:08:54.199Z,6.40
2022-11-12T16:14:16.010Z,6.40
2022-11-12T16:19:39.202Z,6.60
2022-11-12T16:25:01.018Z,6.50
2022-11-12T16:30:24.493Z,6.50
2022-11-12T16:35:47.684Z,6.50
2022-11-12T16:41:11.930Z,6.10
2022-11-12T16:46:40.275Z,5.90
2022-11-12T16:52:03.326Z,5.70
2022-11-12T16:57:25.367Z,5.80
2022-11-12T17:02:52.067Z,6.00
2022-11-12T17:08:16.271Z,6.10
2022-11-12T17:13:39.480Z,6.10
2022-11-12T17:19:02.510Z,6.10
2022-11-12T17:24:27.188Z,6.00
2022-11-12T17:29:48.791Z,5.70
2022-11-12T17:35:10.589Z,5.80
2022-11-12T17:40:33.627Z,5.80
2022-11-12T17:45:56.908Z,5.90
2022-11-12T17:51:21.415Z,5.90
2022-11-12T17:56:44.717Z,6.00
2022-11-12T18:02:06.903Z,5.90
2022-11-12T18:07:29.028Z,6.00
2022-11-12T18:12:53.135Z,5.90
2022-11-12T18:18:14.961Z,5.90
2022-11-12T18:23:38.152Z,5.90
2022-11-12T18:29:01.296Z,5.90
2022-11-12T18:34:22.938Z,5.80
2022-11-12T18:39:44.747Z,5.60
2022-11-12T18:45:09.924Z,5.40
2022-11-12T18:50:31.925Z,5.40
2022-11-12T18:55:53.597Z,5.20
2022-11-12T19:01:20.653Z,5.20
2022-11-12T19:06:42.898Z,5.20
2022-11-12T19:12:05.144Z,5.20
2022-11-12T19:17:30.974Z,5.40
2022-11-12T19:22:54.251Z,5.30
2022-11-12T19:28:16.259Z,5.30
2022-11-12T19:33:39.559Z,5.20
2022-11-12T19:39:02.648Z,5.20
2022-11-12T19:44:24.725Z,5.10
2022-11-12T19:49:47.639Z,5.00
2022-11-12T19:55:09.991Z,5.20
2022-11-12T20:00:31.744Z,5.40
2022-11-12T20:06:00.413Z,5.40
2022-11-12T20:11:22.436Z,5.40
2022-11-12T20:16:44.118Z,5.40
2022-11-12T20:22:07.349Z,5.30
2022-11-12T20:27:28.962Z,5.30
2022-11-12T20:32:50.661Z,5.60
2022-11-12T20:38:13.824Z,5.50
2022-11-12T20:43:35.925Z,5.30
2022-11-12T20:48:57.651Z,5.20
2022-11-12T20:54:20.922Z,5.40
2022-11-12T20:59:43.281Z,5.40
2022-11-12T21:05:05.689Z,5.40
2022-11-12T21:10:28.751Z,5.40
2022-11-12T21:15:50.656Z,5.20
2022-11-12T21:21:15.172Z,5.10
2022-11-12T21:26:38.332Z,4.70
2022-11-12T21:32:00.998Z,4.70
2022-11-12T21:37:23.186Z,4.80
2022-11-12T21:42:46.797Z,5.00
2022-11-12T21:48:08.728Z,5.00
2022-11-12T21:53:30.688Z,4.90
2022-11-12T21:58:54.136Z,4.90
2022-11-12T22:04:18.439Z,5.00
2022-11-12T22:09:40.731Z,5.20
2022-11-12T22:15:04.008Z,5.10
2022-11-12T22:20:25.910Z,5.00
2022-11-12T22:25:48.436Z,5.00
2022-11-12T22:31:15.360Z,4.90
2022-11-12T22:36:37.058Z,4.90
2022-11-12T22:41:58.663Z,4.80
2022-11-12T22:47:21.575Z,4.80
2022-11-12T22:52:48.844Z,4.60
2022-11-12T22:58:12.014Z,4.60
2022-11-12T23:03:36.665Z,4.80
2022-11-12T23:09:00.820Z,4.80
2022-11-12T23:14:22.579Z,4.80
2022-11-12T23:19:46.532Z,4.60
2022-11-12T23:25:09.798Z,4.60
2022-11-12T23:30:31.702Z,4.60
2022-11-12T23:35:55.057Z,4.60
2022-11-12T23:41:19.560Z,4.40
2022-11-12T23:46:41.449Z,4.30
2022-11-12T23:52:04.696Z,4.50
2022-11-12T23:57:26.685Z,4.50
